Polarstern — DBLK — position and weather

sailwx.info

Track history (hours):
 
Tides and Currents Weather Stations Pressure Air Temp Water Temp Dewpoint Dewpoint Depression Visibility Wind Speed Wind Dir Waves Ship Positions

Oceanographic research ship Polarstern (Germany)

Detailed information on ship capabilities available from University of Delaware's Ocean Information Center and ARCUS's ALIAS (Arctic Logistics Information and Support) project.

Last reported at 2020-Apr-09 13:00 UTC. Time now 2020-Apr-09 14:29 UTC.
Position N 84°24' E 014°48'.

Length 117.9 m; beam 25 m; draft 10.7 m.

Type: Other ship. MMSI: 211202460.

Wind from 340 at 10 knots

Barometer 1004.6 mb
Air temperature -22.2 ° C
Dewpoint -24.2 ° C
Water temperature -1.8 ° C

Date/timePositionNaut miles runAvg speedWind from/ knotsBaromVisibWave heightAir tempDewpointWater temp
2020-Apr-09 13:00N 84°24' E 014°48'0 0.0 340 / 101004.6 -22.2-24.2-1.8
2020-Apr-09 12:00N 84°24' E 014°48'0 0.0 340 / 101004.4 -22.5-24.4-1.8
2020-Apr-09 11:00N 84°24' E 014°48'0 0.0 340 / 101004.1 -22.6-24.3-1.8
2020-Apr-09 10:00N 84°24' E 014°48'0 0.0 340 / 121003.8 -22.5-24.1-1.8
2020-Apr-09 09:00N 84°24' E 014°48'0 0.0 340 / 101003.9 -23.2-24.9-1.8
2020-Apr-09 08:00N 84°24' E 014°48'1 0.6 330 / 121004.0 -23.0-25.0-1.8
2020-Apr-09 07:00N 84°24' E 014°54'0 0.0 330 / 121003.6 -23.4-25.6-1.8
2020-Apr-09 06:00N 84°24' E 014°54'0 0.0 330 / 121003.5 -22.5-24.2-1.8
2020-Apr-09 05:00N 84°24' E 014°54'0 0.0 330 / 141003.6 -22.2-24.1-1.8
2020-Apr-09 04:00N 84°24' E 014°54'6 6.0 330 / 141003.4 -22.7-24.8-1.8
2020-Apr-09 03:00N 84°30' E 014°54'1 0.6 320 / 141003.5 -23.9-26.1-1.8
2020-Apr-09 02:00N 84°30' E 014°48'0 0.0 330 / 161003.5 -24.8-26.9-1.8
2020-Apr-09 01:00N 84°30' E 014°48'0 0.0 320 / 161003.7 -25.9-27.8-1.8
2020-Apr-09 00:00N 84°30' E 014°48'0 0.0 320 / 161003.7 -25.1-26.9-1.8
2020-Apr-08 23:00N 84°30' E 014°48'0 0.0 310 / 171003.7 -23.7-25.6-1.8
2020-Apr-08 22:00N 84°30' E 014°48'0 0.0 310 / 141003.8 -23.1-25.3-1.8
2020-Apr-08 21:00N 84°30' E 014°48'0 0.0 300 / 171003.8 -22.2-24.3-1.8
2020-Apr-08 20:00N 84°30' E 014°48'0 0.0 300 / 161004.0 -21.4-23.0-1.8
2020-Apr-08 19:00N 84°30' E 014°48'0 0.0 290 / 141004.0 -20.2-21.7-1.8
2020-Apr-08 18:00N 84°30' E 014°48'0 0.0 280 / 141004.0 -19.7-21.8-1.8
2020-Apr-08 17:00N 84°30' E 014°48'0 0.0 260 / 161004.3 -21.1-23.8-1.8
2020-Apr-08 16:00N 84°30' E 014°48'0 0.0 250 / 161004.7 -20.3-22.5-1.8
2020-Apr-08 15:00N 84°30' E 014°48'1 0.6 250 / 161005.2 -21.6-23.9-1.8
2020-Apr-08 14:00N 84°30' E 014°42'0 0.0 260 / 161005.5 -22.2-24.5-1.8
2020-Apr-08 13:00N 84°30' E 014°42'0 0.0 260 / 141005.8 -22.4-24.8-1.8
2020-Apr-08 12:00N 84°30' E 014°42'0 0.0 270 / 141006.4 -22.8-25.3-1.8
2020-Apr-08 11:00N 84°30' E 014°42'0 0.0 260 / 141006.8 -24.6-27.2-1.9
2020-Apr-08 10:00N 84°30' E 014°42'1 0.6 240 / 141006.8 -25.8-28.4-1.8
2020-Apr-08 09:00N 84°30' E 014°36'0 0.0 240 / 121007.0 -27.3-30.3-1.8
2020-Apr-08 07:00N 84°30' E 014°36'0 0.0 260 / 121007.4 -28.6-32.0-1.8
2020-Apr-08 06:00N 84°30' E 014°36'0 0.0 280 / 101008.0 -29.0-31.9-1.8
2020-Apr-08 05:00N 84°30' E 014°36'0 0.0 280 / 81008.2 -28.7-31.7-1.8
2020-Apr-08 04:00N 84°30' E 014°36'0 0.0 300 / 101008.5 -30.9-33.5-1.8
2020-Apr-08 03:00N 84°30' E 014°36'0 0.0 310 / 81008.6 -29.0-31.2-1.8
2020-Apr-08 02:00N 84°30' E 014°36'0 0.0 330 / 61008.6 -30.2-32.5-1.8
2020-Apr-08 01:00N 84°30' E 014°36'1 0.6 350 / 81008.8 -29.2-31.3-1.8
2020-Apr-08 00:00N 84°30' E 014°30'0 0.0 340 / 121008.8 -31.6-34.3-1.8
2020-Apr-07 23:00N 84°30' E 014°30'0 0.0 340 / 121008.8 -30.6-33.0-1.8
2020-Apr-07 22:00N 84°30' E 014°30'0 0.0 340 / 121008.8 -30.8-33.2-1.8
2020-Apr-07 21:00N 84°30' E 014°30'0 0.0 340 / 101008.9 -30.2-32.8-1.8
2020-Apr-07 20:00N 84°30' E 014°30'0 0.0 340 / 101008.9 -30.2-32.3-1.8
2020-Apr-07 19:00N 84°30' E 014°30'1 0.6 350 / 121008.7 -30.1-32.6-1.8
2020-Apr-07 18:00N 84°30' E 014°36'0 0.0 350 / 101008.6 -29.8-32.4-1.8
2020-Apr-07 17:00N 84°30' E 014°36'0 0.0 360 / 101008.5 -30.1-32.4-1.8
2020-Apr-07 16:00N 84°30' E 014°36'1 0.6 360 / 101008.5 -30.0-32.2-1.8
2020-Apr-07 15:00N 84°30' E 014°30'0 0.0 350 / 101008.6 -29.8-32.0-1.8
2020-Apr-07 14:00N 84°30' E 014°30'0 0.0 360 / 81008.5 -29.9-32.2-1.8
2020-Apr-07 13:00N 84°30' E 014°30'0 0.0 020 / 81008.3 -29.2-31.0-1.8
2020-Apr-07 12:00N 84°30' E 014°30'0 0.0 010 / 61008.3 -29.5-31.9-1.7
2020-Apr-07 11:00N 84°30' E 014°30'0 0.0 010 / 61008.3 -29.3-31.1-1.8
2020-Apr-07 10:00N 84°30' E 014°30'0 0.0 020 / 61008.2 -28.7-30.6-1.8
2020-Apr-07 09:00N 84°30' E 014°30'0 0.0 030 / 81008.0 -28.3-30.3-1.8
2020-Apr-07 08:00N 84°30' E 014°30'0 0.0 020 / 61007.9 -27.4-29.6-1.8
2020-Apr-07 07:00N 84°30' E 014°30'0 0.0 350 / 41007.7 -26.7-28.6-1.8
2020-Apr-07 06:00N 84°30' E 014°30'0 0.0 310 / 41007.9 -26.7-28.6-1.8
2020-Apr-07 05:00N 84°30' E 014°30'0 0.0 310 / 61008.2 -26.5-28.8-1.8
2020-Apr-07 04:00N 84°30' E 014°30'0 0.0 320 / 81008.6 -26.6-28.6-1.8
2020-Apr-07 03:00N 84°30' E 014°30'0 0.0 320 / 101008.9 -26.6-29.0-1.8
2020-Apr-07 02:00N 84°30' E 014°30'0 0.0 320 / 101009.0 -26.1-28.2-1.8
2020-Apr-07 01:00N 84°30' E 014°30'0 0.0 310 / 101008.9 -24.9-26.8-1.8
2020-Apr-07 00:00N 84°30' E 014°30'0 0.0 320 / 81008.8 -24.4-26.6-1.8
2020-Apr-06 23:00N 84°30' E 014°30'0 0.0 340 / 121008.6 -23.7-26.0-1.8
2020-Apr-06 22:00N 84°30' E 014°30'0 0.0 310 / 121008.4 -23.1-25.2-1.8
2020-Apr-06 21:00N 84°30' E 014°30'0 0.0 300 / 161008.2 -22.3-24.2-1.8
2020-Apr-06 20:00N 84°30' E 014°30'0 0.0 300 / 121008.1 -22.5-24.4-1.8
2020-Apr-06 19:00N 84°30' E 014°30'1 0.6 300 / 121007.8 -21.4-23.1-1.8
2020-Apr-06 18:00N 84°30' E 014°24'0 0.0 290 / 141007.7 -20.1-21.8-1.8
2020-Apr-06 17:00N 84°30' E 014°24'0 0.0 280 / 141007.9 -19.2-20.7-1.8
2020-Apr-06 16:00N 84°30' E 014°24'0 0.0 280 / 141008.2 -17.9-20.8-1.8
2020-Apr-06 15:00N 84°30' E 014°24'0 0.0 280 / 141008.2 -18.1-20.8-1.8
2020-Apr-06 14:00N 84°30' E 014°24'1 0.6 270 / 161008.1 -19.1-21.4-1.8
2020-Apr-06 13:00N 84°30' E 014°18'0 0.0 260 / 141008.2 -19.5-22.2-1.8
2020-Apr-06 12:00N 84°30' E 014°18'0 0.0 270 / 141008.3 -19.1-21.9-1.8
2020-Apr-06 11:00N 84°30' E 014°18'1 0.6 260 / 161008.5 -20.1-22.3-1.8
2020-Apr-06 10:00N 84°30' E 014°12'0 0.0 270 / 161008.5 -19.5-22.1-1.8
2020-Apr-06 09:00N 84°30' E 014°12'0 0.0 270 / 161008.5 -19.9-22.4-1.8
2020-Apr-06 08:00N 84°30' E 014°12'0 0.0 270 / 141008.0 -20.4-22.9-1.8
2020-Apr-06 07:00N 84°30' E 014°12'1 0.6 280 / 161008.0 -19.8-22.4-1.8
2020-Apr-06 06:00N 84°30' E 014°06'0 0.0 280 / 121007.7 -20.0-22.7-1.8
2020-Apr-06 05:00N 84°30' E 014°06'0 0.0 280 / 141007.6 -19.1-21.3-1.8
2020-Apr-06 04:00N 84°30' E 014°06'6 6.0 280 / 141007.3 -19.0-21.6-1.8
2020-Apr-06 03:00N 84°36' E 014°06'1 0.6 280 / 161006.8 -19.0-21.4-1.8
2020-Apr-06 02:00N 84°36' E 014°00'0 0.0 280 / 171006.4 -18.8-21.0-1.8
2020-Apr-06 01:00N 84°36' E 014°00'1 0.6 280 / 171006.1 -18.0-19.7-1.8
2020-Apr-06 00:00N 84°36' E 013°54'0 0.0 280 / 171005.8 -17.0-19.2-1.8
2020-Apr-05 23:00N 84°36' E 013°54'0 0.0 280 / 171005.3 -15.5-16.8-1.8
2020-Apr-05 22:00N 84°36' E 013°54'1 0.6 280 / 171005.2 -14.5-16.7-1.8
2020-Apr-05 21:00N 84°36' E 013°48'0 0.0 290 / 191004.8 -15.3-17.4-1.9
2020-Apr-05 20:00N 84°36' E 013°48'0 0.0 280 / 191004.6 -13.0-14.8-1.8
2020-Apr-05 19:00N 84°36' E 013°48'1 0.6 250 / 171004.2 -13.7-15.8-1.8
2020-Apr-05 18:00N 84°36' E 013°42'0 0.0 250 / 191004.6 -13.7-15.9-1.9
2020-Apr-05 17:00N 84°36' E 013°42'1 0.6 250 / 191005.2 -14.6-16.8-1.8
2020-Apr-05 16:00N 84°36' E 013°36'0 0.0 240 / 171005.9 -15.3-17.3-1.9
2020-Apr-05 15:00N 84°36' E 013°36'1 0.6 240 / 171006.6 -16.9-19.2-1.9
2020-Apr-05 14:00N 84°36' E 013°30'0 0.0 230 / 171007.5 -18.4-21.0-1.8
2020-Apr-05 13:00N 84°36' E 013°30'1 0.6 240 / 141008.5 -19.1-21.4-1.8
2020-Apr-05 12:00N 84°36' E 013°24'0 0.0 260 / 161009.8 -19.1-21.5-1.9
2020-Apr-05 11:00N 84°36' E 013°24'1 0.6 260 / 161010.7 -19.4-21.9-1.8
2020-Apr-05 10:00N 84°36' E 013°18'0 0.0 280 / 141011.3 -18.9-21.8-1.9
2020-Apr-05 09:00N 84°36' E 013°18'0 0.0 280 / 161012.1 -18.0-20.8-1.8
2020-Apr-05 08:00N 84°36' E 013°18'1 0.6 280 / 161012.7 -19.4-21.8-1.8
2020-Apr-05 07:00N 84°36' E 013°12'0 0.0 280 / 161013.3 -19.7-21.7-1.8
2020-Apr-05 06:00N 84°36' E 013°12'0 0.0 290 / 141014.2 -20.0-22.2-1.8
2020-Apr-05 05:00N 84°36' E 013°12'1 0.6 300 / 141014.8 -20.3-22.1-1.8
2020-Apr-05 04:00N 84°36' E 013°06'0 0.0 300 / 161015.3 -20.7-22.0-1.8
2020-Apr-05 03:00N 84°36' E 013°06'0 0.0 310 / 141016.1 -21.3-22.0-1.8
2020-Apr-05 02:00N 84°36' E 013°06'0 0.0 320 / 161016.6 -21.7-23.0-1.8
2020-Apr-05 01:00N 84°36' E 013°06'0 0.0 320 / 161017.0 -22.5-23.4-1.8
2020-Apr-05 00:00N 84°36' E 013°06'1 0.6 310 / 121017.5 -24.8-25.6-1.8
2020-Apr-04 23:00N 84°36' E 013°00'0 0.0 310 / 141018.1 -25.7-27.3-1.8
2020-Apr-04 22:00N 84°36' E 013°00'0 0.0 310 / 141018.4 -26.1-26.9-1.8
2020-Apr-04 21:00N 84°36' E 013°00'0 0.0 310 / 161019.0 -26.4-27.5-1.8
2020-Apr-04 20:00N 84°36' E 013°00'0 0.0 310 / 171019.6 -26.8-27.7-1.8
2020-Apr-04 19:00N 84°36' E 013°00'0 0.0 320 / 171020.0 -26.7-27.5-1.8
2020-Apr-04 18:00N 84°36' E 013°00'0 0.0 320 / 191020.2 -26.8-28.4-1.8
2020-Apr-04 17:00N 84°36' E 013°00'0 0.0 320 / 211020.8 -26.4-26.9-1.8
2020-Apr-04 16:00N 84°36' E 013°00'1 0.6 320 / 211021.0 -25.8-26.3-1.8
2020-Apr-04 15:00N 84°36' E 012°54'6 6.0 320 / 191021.4 -25.5-26.2-1.8
2020-Apr-04 14:00N 84°42' E 012°54'0 0.0 320 / 171021.8 -24.8-26.8-1.8
2020-Apr-04 13:00N 84°42' E 012°54'0 0.0 320 / 161022.4 -24.4-26.7-1.8
2020-Apr-04 12:00N 84°42' E 012°54'0 0.0 330 / 171022.7 -25.6-27.7-1.8
2020-Apr-04 11:00N 84°42' E 012°54'0 0.0 320 / 171022.7 -26.8-29.1-1.8
2020-Apr-04 10:00N 84°42' E 012°54'0 0.0 330 / 171022.8 -25.8-28.0-1.8
2020-Apr-04 09:00N 84°42' E 012°54'0 0.0 330 / 171022.9 -25.6-27.6-1.8
2020-Apr-04 08:00N 84°42' E 012°54'0 0.0 330 / 191022.6 -25.3-26.0-1.8
2020-Apr-04 07:00N 84°42' E 012°54'0 0.0 340 / 191022.5 -25.0-25.5-1.9
2020-Apr-04 06:00N 84°42' E 012°54'0 0.0 350 / 211022.0 -24.0-26.7-1.8
2020-Apr-04 05:00N 84°42' E 012°54'1 0.6 350 / 211021.7 -23.8-26.0-1.8
2020-Apr-04 04:00N 84°42' E 013°00'0 0.0 350 / 211021.4 -23.9-26.5-1.8
2020-Apr-04 03:00N 84°42' E 013°00'0 0.0 350 / 211021.2 -24.4-26.7-1.8
2020-Apr-04 02:00N 84°42' E 013°00'0 0.0 350 / 211020.9 -24.5-26.6-1.8
2020-Apr-04 01:00N 84°42' E 013°00'0 0.0 350 / 211020.5 -24.9-27.0-1.8
2020-Apr-04 00:00N 84°42' E 013°00'0 0.0 350 / 211020.0 -24.9-27.4-1.8
2020-Apr-03 23:00N 84°42' E 013°00'1 0.6 350 / 191020.0 -25.0-27.3-1.8
2020-Apr-03 22:00N 84°42' E 013°06'0 0.0 360 / 211019.9 -25.1-27.4-1.8
2020-Apr-03 21:00N 84°42' E 013°06'6 6.0 360 / 191019.3 -24.9-27.3-1.8
2020-Apr-03 20:00N 84°48' E 013°06'0 0.0 360 / 211018.7 -24.7-27.2-1.8
2020-Apr-03 19:00N 84°48' E 013°06'1 0.5 010 / 191018.2 -24.5-26.6-1.8
2020-Apr-03 18:00N 84°48' E 013°12'0 0.0 010 / 191017.3 -24.2-26.6-1.8
2020-Apr-03 17:00N 84°48' E 013°12'1 0.5 360 / 171016.8 -24.7-27.0-1.8
2020-Apr-03 16:00N 84°48' E 013°18'0 0.0 020 / 211016.0 -23.8-26.1-1.8
2020-Apr-03 15:00N 84°48' E 013°18'1 0.5 020 / 191015.4 -23.8-26.1-1.8
2020-Apr-03 14:00N 84°48' E 013°24'0 0.0 030 / 211014.5 -23.7-26.3-1.8
2020-Apr-03 13:00N 84°48' E 013°24'1 0.5 020 / 231013.2 -23.5-26.1-1.8
2020-Apr-03 12:00N 84°48' E 013°30'0 0.0 020 / 211012.3 -24.5-26.7-1.8
2020-Apr-03 11:00N 84°48' E 013°30'1 0.5 010 / 211011.5 -25.7-28.1-1.8
2020-Apr-03 10:00N 84°48' E 013°36'0 0.0 020 / 231010.6 -25.9-28.6-1.8
2020-Apr-03 09:00N 84°48' E 013°36'1 0.5 020 / 231009.4 -26.5-29.0-1.8
2020-Apr-03 08:00N 84°48' E 013°42'0 0.0 010 / 231008.8 -26.7-29.2-1.8
2020-Apr-03 07:00N 84°48' E 013°42'1 0.5 010 / 251008.1 -27.0-29.9-1.8
2020-Apr-03 06:00N 84°48' E 013°48'1 0.5 010 / 251007.3 -27.0-29.9-1.8
2020-Apr-03 05:00N 84°48' E 013°54'1 0.5 010 / 271006.5 -27.0-29.3-1.8
2020-Apr-03 04:00N 84°48' E 014°00'0 0.0 010 / 271005.9 -26.9-29.4-1.8
2020-Apr-03 03:00N 84°48' E 014°00'1 0.5 360 / 291005.2 -26.9-29.5-1.8
2020-Apr-03 02:00N 84°48' E 014°06'6 6.0 010 / 271004.6 -27.0-29.4-1.8
2020-Apr-03 01:00N 84°54' E 014°12'0 0.0 360 / 271004.2 -27.2-29.8-1.8
2020-Apr-03 00:00N 84°54' E 014°12'1 0.5 360 / 271003.4 -27.1-30.0-1.8
2020-Apr-02 23:00N 84°54' E 014°18'0 0.0 360 / 271003.0 -27.1-29.7-1.8
2020-Apr-02 22:00N 84°54' E 014°18'1 0.5 360 / 271002.6 -27.1-29.5-1.8
2020-Apr-02 20:00N 84°54' E 014°30'0 0.0 360 / 271001.4 -26.5-29.4-1.8
2020-Apr-02 19:00N 84°54' E 014°30'1 0.5 360 / 271000.5 -26.1-28.5-1.8
2020-Apr-02 18:00N 84°54' E 014°36'1 0.5 360 / 25999.8 -26.0-28.5-1.8
2020-Apr-02 17:00N 84°54' E 014°42'0 0.0 350 / 27999.1 -25.9-28.6-1.8
2020-Apr-02 16:00N 84°54' E 014°42'1 0.5 350 / 27998.3 -25.8-28.7-1.8
2020-Apr-02 15:00N 84°54' E 014°48'1 0.5 350 / 27997.4 -25.8-28.4-1.8
2020-Apr-02 14:00N 84°54' E 014°54'0 0.0 350 / 25996.6 -25.8-28.2-1.8
2020-Apr-02 13:00N 84°54' E 014°54'1 0.5 350 / 27996.0 -25.8-28.2-1.8
2020-Apr-02 12:00N 84°54' E 015°00'   350 / 25995.3 -25.6-28.3-1.8
Track history (hours):
 
Tides and Currents Weather Stations Pressure Air Temp Water Temp Dewpoint Dewpoint Depression Visibility Wind Speed Wind Dir Waves Ship Positions

Oceanographic research ship Polarstern (Germany)

Detailed information on ship capabilities available from University of Delaware's Ocean Information Center and ARCUS's ALIAS (Arctic Logistics Information and Support) project.

Last reported at 2020-Apr-09 13:00 UTC. Time now 2020-Apr-09 14:29 UTC.
Position N 84°24' E 014°48'.

Length 117.9 m; beam 25 m; draft 10.7 m.

Type: Other ship. MMSI: 211202460.

Wind from 340 at 10 knots

Barometer 1004.6 mb
Air temperature -22.2 ° C
Dewpoint -24.2 ° C
Water temperature -1.8 ° C

Date/timePositionNaut miles runAvg speedWind from/ knotsBaromVisibWave heightAir tempDewpointWater temp
2020-Apr-09 13:00N 84°24' E 014°48'0 0.0 340 / 101004.6 -22.2-24.2-1.8
2020-Apr-09 12:00N 84°24' E 014°48'0 0.0 340 / 101004.4 -22.5-24.4-1.8
2020-Apr-09 11:00N 84°24' E 014°48'0 0.0 340 / 101004.1 -22.6-24.3-1.8
2020-Apr-09 10:00N 84°24' E 014°48'0 0.0 340 / 121003.8 -22.5-24.1-1.8
2020-Apr-09 09:00N 84°24' E 014°48'0 0.0 340 / 101003.9 -23.2-24.9-1.8
2020-Apr-09 08:00N 84°24' E 014°48'1 0.6 330 / 121004.0 -23.0-25.0-1.8
2020-Apr-09 07:00N 84°24' E 014°54'0 0.0 330 / 121003.6 -23.4-25.6-1.8
2020-Apr-09 06:00N 84°24' E 014°54'0 0.0 330 / 121003.5 -22.5-24.2-1.8
2020-Apr-09 05:00N 84°24' E 014°54'0 0.0 330 / 141003.6 -22.2-24.1-1.8
2020-Apr-09 04:00N 84°24' E 014°54'6 6.0 330 / 141003.4 -22.7-24.8-1.8
2020-Apr-09 03:00N 84°30' E 014°54'1 0.6 320 / 141003.5 -23.9-26.1-1.8
2020-Apr-09 02:00N 84°30' E 014°48'0 0.0 330 / 161003.5 -24.8-26.9-1.8
2020-Apr-09 01:00N 84°30' E 014°48'0 0.0 320 / 161003.7 -25.9-27.8-1.8
2020-Apr-09 00:00N 84°30' E 014°48'0 0.0 320 / 161003.7 -25.1-26.9-1.8
2020-Apr-08 23:00N 84°30' E 014°48'0 0.0 310 / 171003.7 -23.7-25.6-1.8
2020-Apr-08 22:00N 84°30' E 014°48'0 0.0 310 / 141003.8 -23.1-25.3-1.8
2020-Apr-08 21:00N 84°30' E 014°48'0 0.0 300 / 171003.8 -22.2-24.3-1.8
2020-Apr-08 20:00N 84°30' E 014°48'0 0.0 300 / 161004.0 -21.4-23.0-1.8
2020-Apr-08 19:00N 84°30' E 014°48'0 0.0 290 / 141004.0 -20.2-21.7-1.8
2020-Apr-08 18:00N 84°30' E 014°48'0 0.0 280 / 141004.0 -19.7-21.8-1.8
2020-Apr-08 17:00N 84°30' E 014°48'0 0.0 260 / 161004.3 -21.1-23.8-1.8
2020-Apr-08 16:00N 84°30' E 014°48'0 0.0 250 / 161004.7 -20.3-22.5-1.8
2020-Apr-08 15:00N 84°30' E 014°48'1 0.6 250 / 161005.2 -21.6-23.9-1.8
2020-Apr-08 14:00N 84°30' E 014°42'0 0.0 260 / 161005.5 -22.2-24.5-1.8
2020-Apr-08 13:00N 84°30' E 014°42'0 0.0 260 / 141005.8 -22.4-24.8-1.8
2020-Apr-08 12:00N 84°30' E 014°42'0 0.0 270 / 141006.4 -22.8-25.3-1.8
2020-Apr-08 11:00N 84°30' E 014°42'0 0.0 260 / 141006.8 -24.6-27.2-1.9
2020-Apr-08 10:00N 84°30' E 014°42'1 0.6 240 / 141006.8 -25.8-28.4-1.8
2020-Apr-08 09:00N 84°30' E 014°36'0 0.0 240 / 121007.0 -27.3-30.3-1.8
2020-Apr-08 07:00N 84°30' E 014°36'0 0.0 260 / 121007.4 -28.6-32.0-1.8
2020-Apr-08 06:00N 84°30' E 014°36'0 0.0 280 / 101008.0 -29.0-31.9-1.8
2020-Apr-08 05:00N 84°30' E 014°36'0 0.0 280 / 81008.2 -28.7-31.7-1.8
2020-Apr-08 04:00N 84°30' E 014°36'0 0.0 300 / 101008.5 -30.9-33.5-1.8
2020-Apr-08 03:00N 84°30' E 014°36'0 0.0 310 / 81008.6 -29.0-31.2-1.8
2020-Apr-08 02:00N 84°30' E 014°36'0 0.0 330 / 61008.6 -30.2-32.5-1.8
2020-Apr-08 01:00N 84°30' E 014°36'1 0.6 350 / 81008.8 -29.2-31.3-1.8
2020-Apr-08 00:00N 84°30' E 014°30'0 0.0 340 / 121008.8 -31.6-34.3-1.8
2020-Apr-07 23:00N 84°30' E 014°30'0 0.0 340 / 121008.8 -30.6-33.0-1.8
2020-Apr-07 22:00N 84°30' E 014°30'0 0.0 340 / 121008.8 -30.8-33.2-1.8
2020-Apr-07 21:00N 84°30' E 014°30'0 0.0 340 / 101008.9 -30.2-32.8-1.8
2020-Apr-07 20:00N 84°30' E 014°30'0 0.0 340 / 101008.9 -30.2-32.3-1.8
2020-Apr-07 19:00N 84°30' E 014°30'1 0.6 350 / 121008.7 -30.1-32.6-1.8
2020-Apr-07 18:00N 84°30' E 014°36'0 0.0 350 / 101008.6 -29.8-32.4-1.8
2020-Apr-07 17:00N 84°30' E 014°36'0 0.0 360 / 101008.5 -30.1-32.4-1.8
2020-Apr-07 16:00N 84°30' E 014°36'1 0.6 360 / 101008.5 -30.0-32.2-1.8
2020-Apr-07 15:00N 84°30' E 014°30'0 0.0 350 / 101008.6 -29.8-32.0-1.8
2020-Apr-07 14:00N 84°30' E 014°30'0 0.0 360 / 81008.5 -29.9-32.2-1.8
2020-Apr-07 13:00N 84°30' E 014°30'0 0.0 020 / 81008.3 -29.2-31.0-1.8
2020-Apr-07 12:00N 84°30' E 014°30'0 0.0 010 / 61008.3 -29.5-31.9-1.7
2020-Apr-07 11:00N 84°30' E 014°30'0 0.0 010 / 61008.3 -29.3-31.1-1.8
2020-Apr-07 10:00N 84°30' E 014°30'0 0.0 020 / 61008.2 -28.7-30.6-1.8
2020-Apr-07 09:00N 84°30' E 014°30'0 0.0 030 / 81008.0 -28.3-30.3-1.8
2020-Apr-07 08:00N 84°30' E 014°30'0 0.0 020 / 61007.9 -27.4-29.6-1.8
2020-Apr-07 07:00N 84°30' E 014°30'0 0.0 350 / 41007.7 -26.7-28.6-1.8
2020-Apr-07 06:00N 84°30' E 014°30'0 0.0 310 / 41007.9 -26.7-28.6-1.8
2020-Apr-07 05:00N 84°30' E 014°30'0 0.0 310 / 61008.2 -26.5-28.8-1.8
2020-Apr-07 04:00N 84°30' E 014°30'0 0.0 320 / 81008.6 -26.6-28.6-1.8
2020-Apr-07 03:00N 84°30' E 014°30'0 0.0 320 / 101008.9 -26.6-29.0-1.8
2020-Apr-07 02:00N 84°30' E 014°30'0 0.0 320 / 101009.0 -26.1-28.2-1.8
2020-Apr-07 01:00N 84°30' E 014°30'0 0.0 310 / 101008.9 -24.9-26.8-1.8
2020-Apr-07 00:00N 84°30' E 014°30'0 0.0 320 / 81008.8 -24.4-26.6-1.8
2020-Apr-06 23:00N 84°30' E 014°30'0 0.0 340 / 121008.6 -23.7-26.0-1.8
2020-Apr-06 22:00N 84°30' E 014°30'0 0.0 310 / 121008.4 -23.1-25.2-1.8
2020-Apr-06 21:00N 84°30' E 014°30'0 0.0 300 / 161008.2 -22.3-24.2-1.8
2020-Apr-06 20:00N 84°30' E 014°30'0 0.0 300 / 121008.1 -22.5-24.4-1.8
2020-Apr-06 19:00N 84°30' E 014°30'1 0.6 300 / 121007.8 -21.4-23.1-1.8
2020-Apr-06 18:00N 84°30' E 014°24'0 0.0 290 / 141007.7 -20.1-21.8-1.8
2020-Apr-06 17:00N 84°30' E 014°24'0 0.0 280 / 141007.9 -19.2-20.7-1.8
2020-Apr-06 16:00N 84°30' E 014°24'0 0.0 280 / 141008.2 -17.9-20.8-1.8
2020-Apr-06 15:00N 84°30' E 014°24'0 0.0 280 / 141008.2 -18.1-20.8-1.8
2020-Apr-06 14:00N 84°30' E 014°24'1 0.6 270 / 161008.1 -19.1-21.4-1.8
2020-Apr-06 13:00N 84°30' E 014°18'0 0.0 260 / 141008.2 -19.5-22.2-1.8
2020-Apr-06 12:00N 84°30' E 014°18'0 0.0 270 / 141008.3 -19.1-21.9-1.8
2020-Apr-06 11:00N 84°30' E 014°18'1 0.6 260 / 161008.5 -20.1-22.3-1.8
2020-Apr-06 10:00N 84°30' E 014°12'0 0.0 270 / 161008.5 -19.5-22.1-1.8
2020-Apr-06 09:00N 84°30' E 014°12'0 0.0 270 / 161008.5 -19.9-22.4-1.8
2020-Apr-06 08:00N 84°30' E 014°12'0 0.0 270 / 141008.0 -20.4-22.9-1.8
2020-Apr-06 07:00N 84°30' E 014°12'1 0.6 280 / 161008.0 -19.8-22.4-1.8
2020-Apr-06 06:00N 84°30' E 014°06'0 0.0 280 / 121007.7 -20.0-22.7-1.8
2020-Apr-06 05:00N 84°30' E 014°06'0 0.0 280 / 141007.6 -19.1-21.3-1.8
2020-Apr-06 04:00N 84°30' E 014°06'6 6.0 280 / 141007.3 -19.0-21.6-1.8
2020-Apr-06 03:00N 84°36' E 014°06'1 0.6 280 / 161006.8 -19.0-21.4-1.8
2020-Apr-06 02:00N 84°36' E 014°00'0 0.0 280 / 171006.4 -18.8-21.0-1.8
2020-Apr-06 01:00N 84°36' E 014°00'1 0.6 280 / 171006.1 -18.0-19.7-1.8
2020-Apr-06 00:00N 84°36' E 013°54'0 0.0 280 / 171005.8 -17.0-19.2-1.8
2020-Apr-05 23:00N 84°36' E 013°54'0 0.0 280 / 171005.3 -15.5-16.8-1.8
2020-Apr-05 22:00N 84°36' E 013°54'1 0.6 280 / 171005.2 -14.5-16.7-1.8
2020-Apr-05 21:00N 84°36' E 013°48'0 0.0 290 / 191004.8 -15.3-17.4-1.9
2020-Apr-05 20:00N 84°36' E 013°48'0 0.0 280 / 191004.6 -13.0-14.8-1.8
2020-Apr-05 19:00N 84°36' E 013°48'1 0.6 250 / 171004.2 -13.7-15.8-1.8
2020-Apr-05 18:00N 84°36' E 013°42'0 0.0 250 / 191004.6 -13.7-15.9-1.9
2020-Apr-05 17:00N 84°36' E 013°42'1 0.6 250 / 191005.2 -14.6-16.8-1.8
2020-Apr-05 16:00N 84°36' E 013°36'0 0.0 240 / 171005.9 -15.3-17.3-1.9
2020-Apr-05 15:00N 84°36' E 013°36'1 0.6 240 / 171006.6 -16.9-19.2-1.9
2020-Apr-05 14:00N 84°36' E 013°30'0 0.0 230 / 171007.5 -18.4-21.0-1.8
2020-Apr-05 13:00N 84°36' E 013°30'1 0.6 240 / 141008.5 -19.1-21.4-1.8
2020-Apr-05 12:00N 84°36' E 013°24'0 0.0 260 / 161009.8 -19.1-21.5-1.9
2020-Apr-05 11:00N 84°36' E 013°24'1 0.6 260 / 161010.7 -19.4-21.9-1.8
2020-Apr-05 10:00N 84°36' E 013°18'0 0.0 280 / 141011.3 -18.9-21.8-1.9
2020-Apr-05 09:00N 84°36' E 013°18'0 0.0 280 / 161012.1 -18.0-20.8-1.8
2020-Apr-05 08:00N 84°36' E 013°18'1 0.6 280 / 161012.7 -19.4-21.8-1.8
2020-Apr-05 07:00N 84°36' E 013°12'0 0.0 280 / 161013.3 -19.7-21.7-1.8
2020-Apr-05 06:00N 84°36' E 013°12'0 0.0 290 / 141014.2 -20.0-22.2-1.8
2020-Apr-05 05:00N 84°36' E 013°12'1 0.6 300 / 141014.8 -20.3-22.1-1.8
2020-Apr-05 04:00N 84°36' E 013°06'0 0.0 300 / 161015.3 -20.7-22.0-1.8
2020-Apr-05 03:00N 84°36' E 013°06'0 0.0 310 / 141016.1 -21.3-22.0-1.8
2020-Apr-05 02:00N 84°36' E 013°06'0 0.0 320 / 161016.6 -21.7-23.0-1.8
2020-Apr-05 01:00N 84°36' E 013°06'0 0.0 320 / 161017.0 -22.5-23.4-1.8
2020-Apr-05 00:00N 84°36' E 013°06'1 0.6 310 / 121017.5 -24.8-25.6-1.8
2020-Apr-04 23:00N 84°36' E 013°00'0 0.0 310 / 141018.1 -25.7-27.3-1.8
2020-Apr-04 22:00N 84°36' E 013°00'0 0.0 310 / 141018.4 -26.1-26.9-1.8
2020-Apr-04 21:00N 84°36' E 013°00'0 0.0 310 / 161019.0 -26.4-27.5-1.8
2020-Apr-04 20:00N 84°36' E 013°00'0 0.0 310 / 171019.6 -26.8-27.7-1.8
2020-Apr-04 19:00N 84°36' E 013°00'0 0.0 320 / 171020.0 -26.7-27.5-1.8
2020-Apr-04 18:00N 84°36' E 013°00'0 0.0 320 / 191020.2 -26.8-28.4-1.8
2020-Apr-04 17:00N 84°36' E 013°00'0 0.0 320 / 211020.8 -26.4-26.9-1.8
2020-Apr-04 16:00N 84°36' E 013°00'1 0.6 320 / 211021.0 -25.8-26.3-1.8
2020-Apr-04 15:00N 84°36' E 012°54'6 6.0 320 / 191021.4 -25.5-26.2-1.8
2020-Apr-04 14:00N 84°42' E 012°54'0 0.0 320 / 171021.8 -24.8-26.8-1.8
2020-Apr-04 13:00N 84°42' E 012°54'0 0.0 320 / 161022.4 -24.4-26.7-1.8
2020-Apr-04 12:00N 84°42' E 012°54'0 0.0 330 / 171022.7 -25.6-27.7-1.8
2020-Apr-04 11:00N 84°42' E 012°54'0 0.0 320 / 171022.7 -26.8-29.1-1.8
2020-Apr-04 10:00N 84°42' E 012°54'0 0.0 330 / 171022.8 -25.8-28.0-1.8
2020-Apr-04 09:00N 84°42' E 012°54'0 0.0 330 / 171022.9 -25.6-27.6-1.8
2020-Apr-04 08:00N 84°42' E 012°54'0 0.0 330 / 191022.6 -25.3-26.0-1.8
2020-Apr-04 07:00N 84°42' E 012°54'0 0.0 340 / 191022.5 -25.0-25.5-1.9
2020-Apr-04 06:00N 84°42' E 012°54'0 0.0 350 / 211022.0 -24.0-26.7-1.8
2020-Apr-04 05:00N 84°42' E 012°54'1 0.6 350 / 211021.7 -23.8-26.0-1.8
2020-Apr-04 04:00N 84°42' E 013°00'0 0.0 350 / 211021.4 -23.9-26.5-1.8
2020-Apr-04 03:00N 84°42' E 013°00'0 0.0 350 / 211021.2 -24.4-26.7-1.8
2020-Apr-04 02:00N 84°42' E 013°00'0 0.0 350 / 211020.9 -24.5-26.6-1.8
2020-Apr-04 01:00N 84°42' E 013°00'0 0.0 350 / 211020.5 -24.9-27.0-1.8
2020-Apr-04 00:00N 84°42' E 013°00'0 0.0 350 / 211020.0 -24.9-27.4-1.8
2020-Apr-03 23:00N 84°42' E 013°00'1 0.6 350 / 191020.0 -25.0-27.3-1.8
2020-Apr-03 22:00N 84°42' E 013°06'0 0.0 360 / 211019.9 -25.1-27.4-1.8
2020-Apr-03 21:00N 84°42' E 013°06'6 6.0 360 / 191019.3 -24.9-27.3-1.8
2020-Apr-03 20:00N 84°48' E 013°06'0 0.0 360 / 211018.7 -24.7-27.2-1.8
2020-Apr-03 19:00N 84°48' E 013°06'1 0.5 010 / 191018.2 -24.5-26.6-1.8
2020-Apr-03 18:00N 84°48' E 013°12'0 0.0 010 / 191017.3 -24.2-26.6-1.8
2020-Apr-03 17:00N 84°48' E 013°12'1 0.5 360 / 171016.8 -24.7-27.0-1.8
2020-Apr-03 16:00N 84°48' E 013°18'0 0.0 020 / 211016.0 -23.8-26.1-1.8
2020-Apr-03 15:00N 84°48' E 013°18'1 0.5 020 / 191015.4 -23.8-26.1-1.8
2020-Apr-03 14:00N 84°48' E 013°24'0 0.0 030 / 211014.5 -23.7-26.3-1.8
2020-Apr-03 13:00N 84°48' E 013°24'1 0.5 020 / 231013.2 -23.5-26.1-1.8
2020-Apr-03 12:00N 84°48' E 013°30'0 0.0 020 / 211012.3 -24.5-26.7-1.8
2020-Apr-03 11:00N 84°48' E 013°30'1 0.5 010 / 211011.5 -25.7-28.1-1.8
2020-Apr-03 10:00N 84°48' E 013°36'0 0.0 020 / 231010.6 -25.9-28.6-1.8
2020-Apr-03 09:00N 84°48' E 013°36'1 0.5 020 / 231009.4 -26.5-29.0-1.8
2020-Apr-03 08:00N 84°48' E 013°42'0 0.0 010 / 231008.8 -26.7-29.2-1.8
2020-Apr-03 07:00N 84°48' E 013°42'1 0.5 010 / 251008.1 -27.0-29.9-1.8
2020-Apr-03 06:00N 84°48' E 013°48'1 0.5 010 / 251007.3 -27.0-29.9-1.8
2020-Apr-03 05:00N 84°48' E 013°54'1 0.5 010 / 271006.5 -27.0-29.3-1.8
2020-Apr-03 04:00N 84°48' E 014°00'0 0.0 010 / 271005.9 -26.9-29.4-1.8
2020-Apr-03 03:00N 84°48' E 014°00'1 0.5 360 / 291005.2 -26.9-29.5-1.8
2020-Apr-03 02:00N 84°48' E 014°06'6 6.0 010 / 271004.6 -27.0-29.4-1.8
2020-Apr-03 01:00N 84°54' E 014°12'0 0.0 360 / 271004.2 -27.2-29.8-1.8
2020-Apr-03 00:00N 84°54' E 014°12'1 0.5 360 / 271003.4 -27.1-30.0-1.8
2020-Apr-02 23:00N 84°54' E 014°18'0 0.0 360 / 271003.0 -27.1-29.7-1.8
2020-Apr-02 22:00N 84°54' E 014°18'1 0.5 360 / 271002.6 -27.1-29.5-1.8
2020-Apr-02 20:00N 84°54' E 014°30'0 0.0 360 / 271001.4 -26.5-29.4-1.8
2020-Apr-02 19:00N 84°54' E 014°30'1 0.5 360 / 271000.5 -26.1-28.5-1.8
2020-Apr-02 18:00N 84°54' E 014°36'1 0.5 360 / 25999.8 -26.0-28.5-1.8
2020-Apr-02 17:00N 84°54' E 014°42'0 0.0 350 / 27999.1 -25.9-28.6-1.8
2020-Apr-02 16:00N 84°54' E 014°42'1 0.5 350 / 27998.3 -25.8-28.7-1.8
2020-Apr-02 15:00N 84°54' E 014°48'1 0.5 350 / 27997.4 -25.8-28.4-1.8
2020-Apr-02 14:00N 84°54' E 014°54'0 0.0 350 / 25996.6 -25.8-28.2-1.8
2020-Apr-02 13:00N 84°54' E 014°54'1 0.5 350 / 27996.0 -25.8-28.2-1.8
2020-Apr-02 12:00N 84°54' E 015°00'   350 / 25995.3 -25.6-28.3-1.8

Dump ship's entire track history